Alexandria, Nebraska
Current Conditions -  °F | °C
As of 7:35 AM on Friday 24 Oct 2014 (Local Time) from KHJH Reporting Station
Haze Haze  
Wind Chill: 57°   Ceiling: Unl
Heat Index: 57°   Visibility: 4mi
Dew Point: 55°   Wind: 5mph
Humidity: 92%   Direction: 210°SSW
Pressure: 29.97"   Gusts: NA
Location:  40.25°N, 97.39°W
Report Text: KHJH 241235Z AUTO 21004KT 4SM BR CLR 14/13 A2997 RMK AO2 T01410128
Loading
Personal Weather Stations






























Interactive Weather Map
Tropical Storm Tracking
New forecast layout! Learn more

10-Day Weather Forecast

Advertisements
Track Severe Weather on mobile